sensor_id;sensor_type;location;lat;lon;timestamp;P1;durP1;ratioP1;P2;durP2;ratioP2
70942;SDS011;59154;51.970;5.650;2022-10-31T00:00:05;8.1;;;7.1;;
70942;SDS011;59154;51.970;5.650;2022-10-31T00:05:02;10.7;;;7.6;;
70942;SDS011;59154;51.970;5.650;2022-10-31T00:10:03;9.0;;;7.6;;
70942;SDS011;59154;51.970;5.650;2022-10-31T00:15:02;12.2;;;7.7;;
70942;SDS011;59154;51.970;5.650;2022-10-31T00:20:03;10.4;;;7.1;;
70942;SDS011;59154;51.970;5.650;2022-10-31T00:25:02;11.2;;;6.7;;
70942;SDS011;59154;51.970;5.650;2022-10-31T00:30:03;9.6;;;7.4;;
70942;SDS011;59154;51.970;5.650;2022-10-31T00:35:02;8.3;;;6.6;;
70942;SDS011;59154;51.970;5.650;2022-10-31T00:40:03;8.5;;;6.6;;
70942;SDS011;59154;51.970;5.650;2022-10-31T00:45:02;11.1;;;7.0;;
70942;SDS011;59154;51.970;5.650;2022-10-31T00:50:03;10.1;;;6.7;;
70942;SDS011;59154;51.970;5.650;2022-10-31T00:55:02;8.9;;;6.5;;
70942;SDS011;59154;51.970;5.650;2022-10-31T01:00:03;8.8;;;6.6;;
70942;SDS011;59154;51.970;5.650;2022-10-31T01:05:03;9.2;;;6.3;;
70942;SDS011;59154;51.970;5.650;2022-10-31T01:10:02;8.0;;;6.3;;
70942;SDS011;59154;51.970;5.650;2022-10-31T01:15:02;10.9;;;6.8;;
70942;SDS011;59154;51.970;5.650;2022-10-31T01:20:03;8.0;;;6.4;;
70942;SDS011;59154;51.970;5.650;2022-10-31T01:25:02;8.2;;;6.1;;
70942;SDS011;59154;51.970;5.650;2022-10-31T01:30:03;10.8;;;6.8;;
70942;SDS011;59154;51.970;5.650;2022-10-31T01:35:02;8.2;;;6.5;;
70942;SDS011;59154;51.970;5.650;2022-10-31T01:40:04;10.7;;;6.4;;
70942;SDS011;59154;51.970;5.650;2022-10-31T01:45:02;12.4;;;6.9;;
70942;SDS011;59154;51.970;5.650;2022-10-31T01:50:03;9.4;;;7.2;;
70942;SDS011;59154;51.970;5.650;2022-10-31T01:55:03;12.0;;;6.5;;
70942;SDS011;59154;51.970;5.650;2022-10-31T02:00:04;9.9;;;6.7;;
70942;SDS011;59154;51.970;5.650;2022-10-31T02:05:04;9.7;;;6.3;;
70942;SDS011;59154;51.970;5.650;2022-10-31T02:10:02;13.5;;;6.6;;
70942;SDS011;59154;51.970;5.650;2022-10-31T02:15:03;8.9;;;6.8;;
70942;SDS011;59154;51.970;5.650;2022-10-31T02:20:07;8.6;;;6.3;;
70942;SDS011;59154;51.970;5.650;2022-10-31T02:25:06;11.4;;;7.2;;
70942;SDS011;59154;51.970;5.650;2022-10-31T02:30:04;13.8;;;8.9;;
70942;SDS011;59154;51.970;5.650;2022-10-31T02:35:04;12.9;;;9.2;;
70942;SDS011;59154;51.970;5.650;2022-10-31T02:40:05;13.0;;;8.5;;
70942;SDS011;59154;51.970;5.650;2022-10-31T02:45:05;11.2;;;8.7;;
70942;SDS011;59154;51.970;5.650;2022-10-31T02:50:04;12.9;;;9.2;;
70942;SDS011;59154;51.970;5.650;2022-10-31T02:55:11;12.6;;;9.2;;
70942;SDS011;59154;51.970;5.650;2022-10-31T03:00:04;12.5;;;9.3;;
70942;SDS011;59154;51.970;5.650;2022-10-31T03:05:09;13.1;;;9.2;;
70942;SDS011;59154;51.970;5.650;2022-10-31T03:10:04;12.7;;;9.0;;
70942;SDS011;59154;51.970;5.650;2022-10-31T03:15:05;15.2;;;10.3;;
70942;SDS011;59154;51.970;5.650;2022-10-31T03:20:04;11.6;;;9.5;;
70942;SDS011;59154;51.970;5.650;2022-10-31T03:25:02;13.8;;;10.3;;
70942;SDS011;59154;51.970;5.650;2022-10-31T03:30:04;16.5;;;11.2;;
70942;SDS011;59154;51.970;5.650;2022-10-31T03:35:02;14.2;;;11.4;;
70942;SDS011;59154;51.970;5.650;2022-10-31T03:40:03;16.0;;;11.3;;
70942;SDS011;59154;51.970;5.650;2022-10-31T03:45:03;14.5;;;11.1;;
70942;SDS011;59154;51.970;5.650;2022-10-31T03:50:02;14.5;;;10.6;;
70942;SDS011;59154;51.970;5.650;2022-10-31T03:55:03;17.4;;;12.1;;
70942;SDS011;59154;51.970;5.650;2022-10-31T04:00:03;16.1;;;11.9;;
70942;SDS011;59154;51.970;5.650;2022-10-31T04:05:02;20.6;;;14.1;;
70942;SDS011;59154;51.970;5.650;2022-10-31T04:10:04;16.4;;;12.7;;
70942;SDS011;59154;51.970;5.650;2022-10-31T04:15:02;15.8;;;12.4;;
70942;SDS011;59154;51.970;5.650;2022-10-31T04:20:04;15.7;;;12.1;;
70942;SDS011;59154;51.970;5.650;2022-10-31T04:25:02;13.7;;;11.8;;
70942;SDS011;59154;51.970;5.650;2022-10-31T04:30:02;16.6;;;12.5;;
70942;SDS011;59154;51.970;5.650;2022-10-31T04:35:03;17.5;;;12.8;;
70942;SDS011;59154;51.970;5.650;2022-10-31T04:40:03;18.7;;;13.0;;
70942;SDS011;59154;51.970;5.650;2022-10-31T04:45:03;19.5;;;11.9;;
70942;SDS011;59154;51.970;5.650;2022-10-31T04:50:03;19.0;;;12.3;;
70942;SDS011;59154;51.970;5.650;2022-10-31T04:55:03;20.0;;;13.2;;
70942;SDS011;59154;51.970;5.650;2022-10-31T05:00:03;19.4;;;13.2;;
70942;SDS011;59154;51.970;5.650;2022-10-31T05:05:02;19.2;;;12.9;;
70942;SDS011;59154;51.970;5.650;2022-10-31T05:10:02;19.1;;;14.6;;
70942;SDS011;59154;51.970;5.650;2022-10-31T05:15:02;18.3;;;14.0;;
70942;SDS011;59154;51.970;5.650;2022-10-31T05:20:03;17.9;;;12.7;;
70942;SDS011;59154;51.970;5.650;2022-10-31T05:25:03;17.6;;;13.5;;
70942;SDS011;59154;51.970;5.650;2022-10-31T05:30:03;15.8;;;12.6;;
70942;SDS011;59154;51.970;5.650;2022-10-31T05:35:02;16.9;;;12.6;;
70942;SDS011;59154;51.970;5.650;2022-10-31T05:40:03;22.2;;;14.2;;
70942;SDS011;59154;51.970;5.650;2022-10-31T05:45:02;15.3;;;12.2;;
70942;SDS011;59154;51.970;5.650;2022-10-31T05:50:02;18.7;;;12.3;;
70942;SDS011;59154;51.970;5.650;2022-10-31T05:55:02;14.2;;;12.0;;
70942;SDS011;59154;51.970;5.650;2022-10-31T06:00:03;20.6;;;13.9;;
70942;SDS011;59154;51.970;5.650;2022-10-31T06:05:02;17.0;;;13.3;;
70942;SDS011;59154;51.970;5.650;2022-10-31T06:10:03;17.6;;;12.6;;
70942;SDS011;59154;51.970;5.650;2022-10-31T06:15:04;16.6;;;12.8;;
70942;SDS011;59154;51.970;5.650;2022-10-31T06:20:03;16.0;;;12.1;;
70942;SDS011;59154;51.970;5.650;2022-10-31T06:25:03;14.4;;;12.5;;
70942;SDS011;59154;51.970;5.650;2022-10-31T06:30:04;16.6;;;12.6;;
70942;SDS011;59154;51.970;5.650;2022-10-31T06:35:02;15.8;;;12.9;;
70942;SDS011;59154;51.970;5.650;2022-10-31T06:40:03;20.2;;;14.2;;
70942;SDS011;59154;51.970;5.650;2022-10-31T06:45:02;18.4;;;14.0;;
70942;SDS011;59154;51.970;5.650;2022-10-31T06:50:02;16.9;;;13.7;;
70942;SDS011;59154;51.970;5.650;2022-10-31T06:55:02;17.7;;;12.5;;
70942;SDS011;59154;51.970;5.650;2022-10-31T07:00:03;21.8;;;13.7;;
70942;SDS011;59154;51.970;5.650;2022-10-31T07:05:03;14.5;;;11.5;;
70942;SDS011;59154;51.970;5.650;2022-10-31T07:10:03;17.6;;;13.1;;
70942;SDS011;59154;51.970;5.650;2022-10-31T07:15:02;18.9;;;13.9;;
70942;SDS011;59154;51.970;5.650;2022-10-31T07:20:18;18.4;;;14.0;;
70942;SDS011;59154;51.970;5.650;2022-10-31T07:25:03;18.1;;;14.1;;
70942;SDS011;59154;51.970;5.650;2022-10-31T07:30:03;16.3;;;13.8;;
70942;SDS011;59154;51.970;5.650;2022-10-31T07:35:02;17.9;;;13.6;;
70942;SDS011;59154;51.970;5.650;2022-10-31T07:40:04;18.6;;;13.7;;
70942;SDS011;59154;51.970;5.650;2022-10-31T07:45:02;19.3;;;14.7;;
70942;SDS011;59154;51.970;5.650;2022-10-31T07:50:03;18.6;;;15.2;;
70942;SDS011;59154;51.970;5.650;2022-10-31T07:55:02;18.2;;;14.9;;
70942;SDS011;59154;51.970;5.650;2022-10-31T08:05:02;15.5;;;13.8;;
70942;SDS011;59154;51.970;5.650;2022-10-31T08:10:02;23.2;;;14.6;;
70942;SDS011;59154;51.970;5.650;2022-10-31T08:15:03;17.8;;;15.1;;
70942;SDS011;59154;51.970;5.650;2022-10-31T08:20:03;19.0;;;14.0;;
70942;SDS011;59154;51.970;5.650;2022-10-31T08:25:03;19.8;;;15.4;;
70942;SDS011;59154;51.970;5.650;2022-10-31T08:30:02;18.0;;;14.1;;
70942;SDS011;59154;51.970;5.650;2022-10-31T08:35:02;19.4;;;14.7;;
70942;SDS011;59154;51.970;5.650;2022-10-31T08:40:03;19.3;;;14.3;;
70942;SDS011;59154;51.970;5.650;2022-10-31T08:45:02;16.0;;;12.8;;
70942;SDS011;59154;51.970;5.650;2022-10-31T08:50:02;19.3;;;13.2;;
70942;SDS011;59154;51.970;5.650;2022-10-31T08:55:02;18.1;;;12.5;;
70942;SDS011;59154;51.970;5.650;2022-10-31T09:00:03;17.4;;;12.0;;
70942;SDS011;59154;51.970;5.650;2022-10-31T09:05:02;16.7;;;10.9;;
70942;SDS011;59154;51.970;5.650;2022-10-31T09:10:03;16.8;;;12.6;;
70942;SDS011;59154;51.970;5.650;2022-10-31T09:15:03;13.7;;;10.8;;
70942;SDS011;59154;51.970;5.650;2022-10-31T09:20:03;13.2;;;10.8;;
70942;SDS011;59154;51.970;5.650;2022-10-31T09:25:02;14.9;;;10.4;;
70942;SDS011;59154;51.970;5.650;2022-10-31T09:30:02;14.8;;;9.6;;
70942;SDS011;59154;51.970;5.650;2022-10-31T09:35:02;14.4;;;10.8;;
70942;SDS011;59154;51.970;5.650;2022-10-31T09:40:03;12.1;;;9.0;;
70942;SDS011;59154;51.970;5.650;2022-10-31T09:45:05;12.2;;;9.3;;
70942;SDS011;59154;51.970;5.650;2022-10-31T09:50:09;15.9;;;9.3;;
70942;SDS011;59154;51.970;5.650;2022-10-31T09:55:03;13.7;;;9.1;;
70942;SDS011;59154;51.970;5.650;2022-10-31T10:00:03;14.4;;;9.6;;
70942;SDS011;59154;51.970;5.650;2022-10-31T10:05:03;13.3;;;9.7;;
70942;SDS011;59154;51.970;5.650;2022-10-31T10:10:08;13.1;;;9.3;;
70942;SDS011;59154;51.970;5.650;2022-10-31T10:15:08;11.6;;;9.9;;
70942;SDS011;59154;51.970;5.650;2022-10-31T10:20:11;17.6;;;11.3;;
70942;SDS011;59154;51.970;5.650;2022-10-31T10:25:10;14.7;;;10.7;;
70942;SDS011;59154;51.970;5.650;2022-10-31T10:30:03;15.3;;;10.4;;
70942;SDS011;59154;51.970;5.650;2022-10-31T10:35:07;17.2;;;11.8;;
70942;SDS011;59154;51.970;5.650;2022-10-31T10:40:05;13.8;;;10.6;;
70942;SDS011;59154;51.970;5.650;2022-10-31T10:45:06;15.9;;;12.2;;
70942;SDS011;59154;51.970;5.650;2022-10-31T10:50:02;15.3;;;12.8;;
70942;SDS011;59154;51.970;5.650;2022-10-31T10:55:04;17.1;;;12.0;;
70942;SDS011;59154;51.970;5.650;2022-10-31T11:00:10;18.2;;;12.3;;
70942;SDS011;59154;51.970;5.650;2022-10-31T11:05:02;17.0;;;13.1;;
70942;SDS011;59154;51.970;5.650;2022-10-31T11:10:03;18.8;;;11.9;;
70942;SDS011;59154;51.970;5.650;2022-10-31T11:15:05;15.8;;;11.3;;
70942;SDS011;59154;51.970;5.650;2022-10-31T11:20:04;18.4;;;12.2;;
70942;SDS011;59154;51.970;5.650;2022-10-31T11:25:14;20.8;;;13.7;;
70942;SDS011;59154;51.970;5.650;2022-10-31T11:30:04;21.6;;;14.8;;
70942;SDS011;59154;51.970;5.650;2022-10-31T11:35:03;25.1;;;14.4;;
70942;SDS011;59154;51.970;5.650;2022-10-31T11:40:04;18.8;;;13.6;;
70942;SDS011;59154;51.970;5.650;2022-10-31T11:45:05;21.5;;;16.0;;
70942;SDS011;59154;51.970;5.650;2022-10-31T11:50:08;20.8;;;14.8;;
70942;SDS011;59154;51.970;5.650;2022-10-31T11:55:13;22.3;;;14.8;;
70942;SDS011;59154;51.970;5.650;2022-10-31T12:00:04;22.7;;;15.0;;
70942;SDS011;59154;51.970;5.650;2022-10-31T12:05:02;23.1;;;14.0;;
70942;SDS011;59154;51.970;5.650;2022-10-31T12:10:04;18.3;;;13.0;;
70942;SDS011;59154;51.970;5.650;2022-10-31T12:15:06;21.6;;;14.7;;
70942;SDS011;59154;51.970;5.650;2022-10-31T12:20:05;21.4;;;14.8;;
70942;SDS011;59154;51.970;5.650;2022-10-31T12:25:07;24.2;;;15.8;;
70942;SDS011;59154;51.970;5.650;2022-10-31T12:30:13;25.7;;;16.3;;
70942;SDS011;59154;51.970;5.650;2022-10-31T12:35:05;22.4;;;15.5;;
70942;SDS011;59154;51.970;5.650;2022-10-31T12:40:07;22.3;;;15.8;;
70942;SDS011;59154;51.970;5.650;2022-10-31T12:45:07;24.2;;;15.5;;
70942;SDS011;59154;51.970;5.650;2022-10-31T12:50:10;27.7;;;16.3;;
70942;SDS011;59154;51.970;5.650;2022-10-31T12:55:08;22.6;;;16.0;;
70942;SDS011;59154;51.970;5.650;2022-10-31T13:00:04;22.0;;;15.2;;
70942;SDS011;59154;51.970;5.650;2022-10-31T13:05:03;26.0;;;15.4;;
70942;SDS011;59154;51.970;5.650;2022-10-31T13:10:04;20.4;;;15.0;;
70942;SDS011;59154;51.970;5.650;2022-10-31T13:15:03;22.8;;;15.2;;
70942;SDS011;59154;51.970;5.650;2022-10-31T13:20:05;20.8;;;15.2;;
70942;SDS011;59154;51.970;5.650;2022-10-31T13:25:03;23.7;;;15.7;;
70942;SDS011;59154;51.970;5.650;2022-10-31T13:30:03;24.3;;;16.2;;
70942;SDS011;59154;51.970;5.650;2022-10-31T13:35:02;25.1;;;16.2;;
70942;SDS011;59154;51.970;5.650;2022-10-31T13:40:07;24.4;;;15.6;;
70942;SDS011;59154;51.970;5.650;2022-10-31T13:45:12;22.4;;;14.7;;
70942;SDS011;59154;51.970;5.650;2022-10-31T13:50:04;21.5;;;14.2;;
70942;SDS011;59154;51.970;5.650;2022-10-31T13:55:02;22.3;;;14.9;;
70942;SDS011;59154;51.970;5.650;2022-10-31T14:00:04;24.2;;;15.0;;
70942;SDS011;59154;51.970;5.650;2022-10-31T14:05:02;20.2;;;14.0;;
70942;SDS011;59154;51.970;5.650;2022-10-31T14:10:03;20.9;;;13.6;;
70942;SDS011;59154;51.970;5.650;2022-10-31T14:15:04;26.5;;;14.9;;
70942;SDS011;59154;51.970;5.650;2022-10-31T14:20:21;24.8;;;14.7;;
70942;SDS011;59154;51.970;5.650;2022-10-31T14:25:24;19.3;;;14.2;;
70942;SDS011;59154;51.970;5.650;2022-10-31T14:30:14;18.9;;;12.9;;
70942;SDS011;59154;51.970;5.650;2022-10-31T14:35:02;17.0;;;12.4;;
70942;SDS011;59154;51.970;5.650;2022-10-31T14:40:06;18.7;;;14.4;;
70942;SDS011;59154;51.970;5.650;2022-10-31T14:45:22;20.7;;;13.1;;
70942;SDS011;59154;51.970;5.650;2022-10-31T14:50:07;20.3;;;12.3;;
70942;SDS011;59154;51.970;5.650;2022-10-31T14:55:02;20.5;;;13.4;;
70942;SDS011;59154;51.970;5.650;2022-10-31T15:00:04;22.5;;;13.4;;
70942;SDS011;59154;51.970;5.650;2022-10-31T15:05:03;20.1;;;12.4;;
70942;SDS011;59154;51.970;5.650;2022-10-31T15:10:03;21.7;;;13.7;;
70942;SDS011;59154;51.970;5.650;2022-10-31T15:15:10;22.5;;;14.5;;
70942;SDS011;59154;51.970;5.650;2022-10-31T15:20:03;23.3;;;13.5;;
70942;SDS011;59154;51.970;5.650;2022-10-31T15:25:02;27.2;;;13.7;;
70942;SDS011;59154;51.970;5.650;2022-10-31T15:30:15;20.2;;;12.6;;
70942;SDS011;59154;51.970;5.650;2022-10-31T15:35:02;20.9;;;13.3;;
70942;SDS011;59154;51.970;5.650;2022-10-31T15:40:06;20.6;;;12.9;;
70942;SDS011;59154;51.970;5.650;2022-10-31T15:45:04;21.0;;;13.8;;
70942;SDS011;59154;51.970;5.650;2022-10-31T15:50:03;23.5;;;13.0;;
70942;SDS011;59154;51.970;5.650;2022-10-31T15:55:03;22.6;;;13.5;;
70942;SDS011;59154;51.970;5.650;2022-10-31T16:00:04;18.5;;;12.7;;
70942;SDS011;59154;51.970;5.650;2022-10-31T16:05:15;20.0;;;13.3;;
70942;SDS011;59154;51.970;5.650;2022-10-31T16:10:03;22.0;;;13.8;;
70942;SDS011;59154;51.970;5.650;2022-10-31T16:15:03;19.1;;;13.8;;
70942;SDS011;59154;51.970;5.650;2022-10-31T16:20:04;21.4;;;13.6;;
70942;SDS011;59154;51.970;5.650;2022-10-31T16:25:03;21.4;;;13.3;;
70942;SDS011;59154;51.970;5.650;2022-10-31T16:30:24;21.1;;;13.8;;
70942;SDS011;59154;51.970;5.650;2022-10-31T16:35:35;25.0;;;14.4;;
70942;SDS011;59154;51.970;5.650;2022-10-31T16:40:04;21.3;;;13.0;;
70942;SDS011;59154;51.970;5.650;2022-10-31T16:45:03;21.6;;;13.7;;
70942;SDS011;59154;51.970;5.650;2022-10-31T16:50:04;22.8;;;14.4;;
70942;SDS011;59154;51.970;5.650;2022-10-31T16:55:02;21.8;;;14.1;;
70942;SDS011;59154;51.970;5.650;2022-10-31T17:00:03;19.4;;;13.9;;
70942;SDS011;59154;51.970;5.650;2022-10-31T17:05:02;22.7;;;15.5;;
70942;SDS011;59154;51.970;5.650;2022-10-31T17:10:02;21.6;;;14.2;;
70942;SDS011;59154;51.970;5.650;2022-10-31T17:15:03;17.5;;;12.2;;
70942;SDS011;59154;51.970;5.650;2022-10-31T17:20:07;22.9;;;14.2;;
70942;SDS011;59154;51.970;5.650;2022-10-31T17:25:02;20.0;;;12.7;;
70942;SDS011;59154;51.970;5.650;2022-10-31T17:30:03;22.5;;;13.7;;
70942;SDS011;59154;51.970;5.650;2022-10-31T17:35:02;23.3;;;13.8;;
70942;SDS011;59154;51.970;5.650;2022-10-31T17:40:03;21.2;;;12.9;;
70942;SDS011;59154;51.970;5.650;2022-10-31T17:45:02;27.7;;;14.2;;
70942;SDS011;59154;51.970;5.650;2022-10-31T17:50:02;21.8;;;12.1;;
70942;SDS011;59154;51.970;5.650;2022-10-31T17:55:02;19.9;;;13.6;;
70942;SDS011;59154;51.970;5.650;2022-10-31T18:00:03;20.0;;;13.1;;
70942;SDS011;59154;51.970;5.650;2022-10-31T18:05:02;20.4;;;13.5;;
70942;SDS011;59154;51.970;5.650;2022-10-31T18:10:02;16.9;;;13.0;;
70942;SDS011;59154;51.970;5.650;2022-10-31T18:15:02;21.5;;;13.2;;
70942;SDS011;59154;51.970;5.650;2022-10-31T18:20:03;19.6;;;13.2;;
70942;SDS011;59154;51.970;5.650;2022-10-31T18:25:02;16.7;;;11.8;;
70942;SDS011;59154;51.970;5.650;2022-10-31T18:30:03;20.4;;;12.8;;
70942;SDS011;59154;51.970;5.650;2022-10-31T18:35:02;19.5;;;12.7;;
70942;SDS011;59154;51.970;5.650;2022-10-31T18:40:03;17.2;;;12.3;;
70942;SDS011;59154;51.970;5.650;2022-10-31T18:45:02;16.7;;;13.0;;
70942;SDS011;59154;51.970;5.650;2022-10-31T18:50:02;18.9;;;13.4;;
70942;SDS011;59154;51.970;5.650;2022-10-31T18:55:02;16.0;;;11.1;;
70942;SDS011;59154;51.970;5.650;2022-10-31T19:00:03;17.4;;;11.7;;
70942;SDS011;59154;51.970;5.650;2022-10-31T19:05:02;18.6;;;11.9;;
70942;SDS011;59154;51.970;5.650;2022-10-31T19:10:03;19.5;;;10.6;;
70942;SDS011;59154;51.970;5.650;2022-10-31T19:15:02;20.2;;;11.2;;
70942;SDS011;59154;51.970;5.650;2022-10-31T19:20:03;18.7;;;10.6;;
70942;SDS011;59154;51.970;5.650;2022-10-31T19:25:02;15.5;;;10.2;;
70942;SDS011;59154;51.970;5.650;2022-10-31T19:30:03;15.6;;;11.2;;
70942;SDS011;59154;51.970;5.650;2022-10-31T19:35:02;16.2;;;10.2;;
70942;SDS011;59154;51.970;5.650;2022-10-31T19:40:04;15.9;;;10.3;;
70942;SDS011;59154;51.970;5.650;2022-10-31T19:45:03;18.5;;;9.6;;
70942;SDS011;59154;51.970;5.650;2022-10-31T19:50:02;16.8;;;9.2;;
70942;SDS011;59154;51.970;5.650;2022-10-31T19:55:03;15.0;;;9.1;;
70942;SDS011;59154;51.970;5.650;2022-10-31T20:00:03;13.0;;;8.6;;
70942;SDS011;59154;51.970;5.650;2022-10-31T20:05:02;13.0;;;7.4;;
70942;SDS011;59154;51.970;5.650;2022-10-31T20:10:02;14.3;;;7.6;;
70942;SDS011;59154;51.970;5.650;2022-10-31T20:15:02;12.6;;;6.5;;
70942;SDS011;59154;51.970;5.650;2022-10-31T20:20:04;9.6;;;5.3;;
70942;SDS011;59154;51.970;5.650;2022-10-31T20:25:02;9.7;;;5.1;;
70942;SDS011;59154;51.970;5.650;2022-10-31T20:30:02;9.1;;;5.0;;
70942;SDS011;59154;51.970;5.650;2022-10-31T20:35:02;9.0;;;5.3;;
70942;SDS011;59154;51.970;5.650;2022-10-31T20:40:03;9.8;;;5.1;;
70942;SDS011;59154;51.970;5.650;2022-10-31T20:45:02;9.8;;;5.4;;
70942;SDS011;59154;51.970;5.650;2022-10-31T20:50:02;9.0;;;4.9;;
70942;SDS011;59154;51.970;5.650;2022-10-31T20:55:02;9.1;;;4.7;;
70942;SDS011;59154;51.970;5.650;2022-10-31T21:00:03;11.2;;;5.3;;
70942;SDS011;59154;51.970;5.650;2022-10-31T21:05:02;9.0;;;4.6;;
70942;SDS011;59154;51.970;5.650;2022-10-31T21:10:02;10.3;;;4.7;;
70942;SDS011;59154;51.970;5.650;2022-10-31T21:15:02;8.4;;;4.4;;
70942;SDS011;59154;51.970;5.650;2022-10-31T21:20:03;10.3;;;4.9;;
70942;SDS011;59154;51.970;5.650;2022-10-31T21:25:03;10.6;;;4.7;;
70942;SDS011;59154;51.970;5.650;2022-10-31T21:30:03;9.7;;;4.3;;
70942;SDS011;59154;51.970;5.650;2022-10-31T21:35:02;8.7;;;4.2;;
70942;SDS011;59154;51.970;5.650;2022-10-31T21:40:03;6.7;;;4.7;;
70942;SDS011;59154;51.970;5.650;2022-10-31T21:45:02;8.4;;;5.3;;
70942;SDS011;59154;51.970;5.650;2022-10-31T21:50:02;9.3;;;4.5;;
70942;SDS011;59154;51.970;5.650;2022-10-31T21:55:02;9.4;;;4.8;;
70942;SDS011;59154;51.970;5.650;2022-10-31T22:00:03;9.8;;;4.8;;
70942;SDS011;59154;51.970;5.650;2022-10-31T22:05:02;8.3;;;4.8;;
70942;SDS011;59154;51.970;5.650;2022-10-31T22:10:03;9.2;;;4.2;;
70942;SDS011;59154;51.970;5.650;2022-10-31T22:15:02;6.9;;;4.0;;
70942;SDS011;59154;51.970;5.650;2022-10-31T22:20:03;12.0;;;5.0;;
70942;SDS011;59154;51.970;5.650;2022-10-31T22:25:02;6.5;;;4.3;;
70942;SDS011;59154;51.970;5.650;2022-10-31T22:30:02;7.2;;;4.5;;
70942;SDS011;59154;51.970;5.650;2022-10-31T22:35:02;11.1;;;4.7;;
70942;SDS011;59154;51.970;5.650;2022-10-31T22:40:03;7.0;;;4.4;;
70942;SDS011;59154;51.970;5.650;2022-10-31T22:45:02;8.0;;;4.6;;
70942;SDS011;59154;51.970;5.650;2022-10-31T22:50:02;10.0;;;4.1;;
70942;SDS011;59154;51.970;5.650;2022-10-31T22:55:03;9.7;;;4.8;;
70942;SDS011;59154;51.970;5.650;2022-10-31T23:00:03;9.2;;;4.4;;
70942;SDS011;59154;51.970;5.650;2022-10-31T23:05:03;11.7;;;5.2;;
70942;SDS011;59154;51.970;5.650;2022-10-31T23:10:02;8.7;;;4.4;;
70942;SDS011;59154;51.970;5.650;2022-10-31T23:15:03;7.3;;;4.4;;
70942;SDS011;59154;51.970;5.650;2022-10-31T23:20:03;9.3;;;4.1;;
70942;SDS011;59154;51.970;5.650;2022-10-31T23:25:02;15.8;;;5.5;;
70942;SDS011;59154;51.970;5.650;2022-10-31T23:30:03;12.9;;;4.9;;
70942;SDS011;59154;51.970;5.650;2022-10-31T23:35:03;7.5;;;4.8;;
70942;SDS011;59154;51.970;5.650;2022-10-31T23:40:03;8.5;;;4.5;;
70942;SDS011;59154;51.970;5.650;2022-10-31T23:45:02;7.7;;;4.4;;
70942;SDS011;59154;51.970;5.650;2022-10-31T23:50:02;11.0;;;5.3;;
70942;SDS011;59154;51.970;5.650;2022-10-31T23:55:02;14.7;;;5.0;;
